sensor_id;sensor_type;location;lat;lon;timestamp;P1;durP1;ratioP1;P2;durP2;ratioP2
45848;SDS011;31567;54.600;9.842;2023-03-02T00:02:15;532.00;;;32.55;;
45848;SDS011;31567;54.600;9.842;2023-03-02T00:06:00;289.63;;;24.63;;
45848;SDS011;31567;54.600;9.842;2023-03-02T00:09:40;337.58;;;24.45;;
45848;SDS011;31567;54.600;9.842;2023-03-02T00:13:21;429.75;;;26.58;;
45848;SDS011;31567;54.600;9.842;2023-03-02T00:17:00;357.98;;;26.60;;
45848;SDS011;31567;54.600;9.842;2023-03-02T00:20:40;325.50;;;22.55;;
45848;SDS011;31567;54.600;9.842;2023-03-02T00:24:20;291.60;;;21.20;;
45848;SDS011;31567;54.600;9.842;2023-03-02T00:27:59;399.02;;;24.23;;
45848;SDS011;31567;54.600;9.842;2023-03-02T00:31:39;324.65;;;22.17;;
45848;SDS011;31567;54.600;9.842;2023-03-02T00:35:19;359.77;;;24.48;;
45848;SDS011;31567;54.600;9.842;2023-03-02T00:38:58;210.10;;;19.58;;
45848;SDS011;31567;54.600;9.842;2023-03-02T00:42:38;361.08;;;23.38;;
45848;SDS011;31567;54.600;9.842;2023-03-02T00:46:18;200.40;;;19.23;;
45848;SDS011;31567;54.600;9.842;2023-03-02T00:50:00;270.23;;;21.35;;
45848;SDS011;31567;54.600;9.842;2023-03-02T00:53:41;215.20;;;20.67;;
45848;SDS011;31567;54.600;9.842;2023-03-02T00:57:21;200.60;;;21.35;;
45848;SDS011;31567;54.600;9.842;2023-03-02T01:01:07;160.18;;;19.20;;
45848;SDS011;31567;54.600;9.842;2023-03-02T01:04:48;323.75;;;25.02;;
45848;SDS011;31567;54.600;9.842;2023-03-02T01:08:28;310.08;;;24.15;;
45848;SDS011;31567;54.600;9.842;2023-03-02T01:12:08;137.18;;;18.33;;
45848;SDS011;31567;54.600;9.842;2023-03-02T01:15:58;134.60;;;18.15;;
45848;SDS011;31567;54.600;9.842;2023-03-02T01:19:38;247.27;;;20.05;;
45848;SDS011;31567;54.600;9.842;2023-03-02T01:23:19;252.45;;;20.80;;
45848;SDS011;31567;54.600;9.842;2023-03-02T01:26:58;185.50;;;18.92;;
45848;SDS011;31567;54.600;9.842;2023-03-02T01:30:38;156.57;;;18.70;;
45848;SDS011;31567;54.600;9.842;2023-03-02T01:34:18;184.27;;;19.25;;
45848;SDS011;31567;54.600;9.842;2023-03-02T01:37:57;82.85;;;17.27;;
45848;SDS011;31567;54.600;9.842;2023-03-02T01:41:37;209.10;;;20.40;;
45848;SDS011;31567;54.600;9.842;2023-03-02T01:49:21;297.67;;;21.70;;
45848;SDS011;31567;54.600;9.842;2023-03-02T01:53:00;446.65;;;26.27;;
45848;SDS011;31567;54.600;9.842;2023-03-02T01:56:40;280.90;;;21.52;;
45848;SDS011;31567;54.600;9.842;2023-03-02T02:00:21;476.88;;;24.23;;
45848;SDS011;31567;54.600;9.842;2023-03-02T02:04:03;322.38;;;24.85;;
45848;SDS011;31567;54.600;9.842;2023-03-02T02:07:44;361.83;;;23.23;;
45848;SDS011;31567;54.600;9.842;2023-03-02T02:11:24;452.15;;;24.83;;
45848;SDS011;31567;54.600;9.842;2023-03-02T02:15:04;121.30;;;18.05;;
45848;SDS011;31567;54.600;9.842;2023-03-02T02:18:44;277.13;;;19.98;;
45848;SDS011;31567;54.600;9.842;2023-03-02T02:22:33;161.45;;;17.58;;
45848;SDS011;31567;54.600;9.842;2023-03-02T02:26:19;231.18;;;19.48;;
45848;SDS011;31567;54.600;9.842;2023-03-02T02:30:07;308.98;;;20.17;;
45848;SDS011;31567;54.600;9.842;2023-03-02T02:33:50;317.70;;;20.60;;
45848;SDS011;31567;54.600;9.842;2023-03-02T02:37:36;293.85;;;20.20;;
45848;SDS011;31567;54.600;9.842;2023-03-02T02:41:22;305.92;;;20.95;;
45848;SDS011;31567;54.600;9.842;2023-03-02T02:45:06;351.73;;;21.67;;
45848;SDS011;31567;54.600;9.842;2023-03-02T02:48:55;364.27;;;22.90;;
45848;SDS011;31567;54.600;9.842;2023-03-02T02:52:35;288.95;;;21.17;;
45848;SDS011;31567;54.600;9.842;2023-03-02T02:56:17;348.63;;;24.40;;
45848;SDS011;31567;54.600;9.842;2023-03-02T02:59:58;228.05;;;21.02;;
45848;SDS011;31567;54.600;9.842;2023-03-02T03:03:38;344.70;;;25.75;;
45848;SDS011;31567;54.600;9.842;2023-03-02T03:07:22;226.90;;;19.60;;
45848;SDS011;31567;54.600;9.842;2023-03-02T03:11:02;216.73;;;22.35;;
45848;SDS011;31567;54.600;9.842;2023-03-02T03:14:42;212.05;;;23.38;;
45848;SDS011;31567;54.600;9.842;2023-03-02T03:18:22;336.50;;;25.77;;
45848;SDS011;31567;54.600;9.842;2023-03-02T03:22:02;222.30;;;20.60;;
45848;SDS011;31567;54.600;9.842;2023-03-02T03:25:42;231.27;;;21.63;;
45848;SDS011;31567;54.600;9.842;2023-03-02T03:29:22;238.77;;;23.90;;
45848;SDS011;31567;54.600;9.842;2023-03-02T03:33:03;258.67;;;22.30;;
45848;SDS011;31567;54.600;9.842;2023-03-02T03:36:42;149.30;;;19.35;;
45848;SDS011;31567;54.600;9.842;2023-03-02T03:40:22;189.75;;;21.05;;
45848;SDS011;31567;54.600;9.842;2023-03-02T03:44:01;125.75;;;18.10;;
45848;SDS011;31567;54.600;9.842;2023-03-02T03:47:41;112.25;;;18.17;;
45848;SDS011;31567;54.600;9.842;2023-03-02T03:51:21;136.85;;;20.27;;
45848;SDS011;31567;54.600;9.842;2023-03-02T03:55:01;112.10;;;18.73;;
45848;SDS011;31567;54.600;9.842;2023-03-02T03:58:41;70.82;;;16.75;;
45848;SDS011;31567;54.600;9.842;2023-03-02T04:02:21;121.75;;;19.10;;
45848;SDS011;31567;54.600;9.842;2023-03-02T04:06:00;153.20;;;19.00;;
45848;SDS011;31567;54.600;9.842;2023-03-02T04:09:40;206.20;;;19.50;;
45848;SDS011;31567;54.600;9.842;2023-03-02T04:13:19;213.82;;;20.23;;
45848;SDS011;31567;54.600;9.842;2023-03-02T04:16:59;140.55;;;19.23;;
45848;SDS011;31567;54.600;9.842;2023-03-02T04:20:38;164.20;;;20.05;;
45848;SDS011;31567;54.600;9.842;2023-03-02T04:24:19;133.88;;;18.80;;
45848;SDS011;31567;54.600;9.842;2023-03-02T04:28:01;83.32;;;18.55;;
45848;SDS011;31567;54.600;9.842;2023-03-02T04:31:40;124.10;;;18.30;;
45848;SDS011;31567;54.600;9.842;2023-03-02T04:35:20;86.47;;;18.27;;
45848;SDS011;31567;54.600;9.842;2023-03-02T04:39:00;129.20;;;19.52;;
45848;SDS011;31567;54.600;9.842;2023-03-02T04:42:40;107.00;;;19.73;;
45848;SDS011;31567;54.600;9.842;2023-03-02T04:46:22;81.78;;;19.23;;
45848;SDS011;31567;54.600;9.842;2023-03-02T04:50:03;90.60;;;19.33;;
45848;SDS011;31567;54.600;9.842;2023-03-02T04:53:42;148.65;;;21.08;;
45848;SDS011;31567;54.600;9.842;2023-03-02T04:57:22;183.35;;;22.70;;
45848;SDS011;31567;54.600;9.842;2023-03-02T05:01:02;55.05;;;19.10;;
45848;SDS011;31567;54.600;9.842;2023-03-02T05:04:41;25.83;;;17.33;;
45848;SDS011;31567;54.600;9.842;2023-03-02T05:08:21;37.97;;;16.67;;
45848;SDS011;31567;54.600;9.842;2023-03-02T05:12:02;22.02;;;16.15;;
45848;SDS011;31567;54.600;9.842;2023-03-02T05:15:42;19.77;;;15.65;;
45848;SDS011;31567;54.600;9.842;2023-03-02T05:19:22;22.63;;;16.70;;
45848;SDS011;31567;54.600;9.842;2023-03-02T05:23:03;22.65;;;17.13;;
45848;SDS011;31567;54.600;9.842;2023-03-02T05:26:45;23.40;;;16.73;;
45848;SDS011;31567;54.600;9.842;2023-03-02T05:30:25;19.98;;;15.73;;
45848;SDS011;31567;54.600;9.842;2023-03-02T05:34:05;22.92;;;17.00;;
45848;SDS011;31567;54.600;9.842;2023-03-02T05:37:46;21.02;;;16.10;;
45848;SDS011;31567;54.600;9.842;2023-03-02T05:41:26;21.08;;;16.27;;
45848;SDS011;31567;54.600;9.842;2023-03-02T05:45:06;24.42;;;16.85;;
45848;SDS011;31567;54.600;9.842;2023-03-02T05:48:49;24.73;;;17.30;;
45848;SDS011;31567;54.600;9.842;2023-03-02T05:52:29;25.50;;;17.20;;
45848;SDS011;31567;54.600;9.842;2023-03-02T05:56:08;21.80;;;16.15;;
45848;SDS011;31567;54.600;9.842;2023-03-02T05:59:48;22.23;;;15.75;;
45848;SDS011;31567;54.600;9.842;2023-03-02T06:03:28;20.80;;;15.57;;
45848;SDS011;31567;54.600;9.842;2023-03-02T06:07:11;20.17;;;15.68;;
45848;SDS011;31567;54.600;9.842;2023-03-02T06:10:54;23.17;;;16.73;;
45848;SDS011;31567;54.600;9.842;2023-03-02T06:14:35;24.05;;;16.58;;
45848;SDS011;31567;54.600;9.842;2023-03-02T06:18:15;24.25;;;16.52;;
45848;SDS011;31567;54.600;9.842;2023-03-02T06:21:54;23.75;;;15.82;;
45848;SDS011;31567;54.600;9.842;2023-03-02T06:25:34;24.40;;;15.77;;
45848;SDS011;31567;54.600;9.842;2023-03-02T06:29:16;23.65;;;16.08;;
45848;SDS011;31567;54.600;9.842;2023-03-02T06:32:55;21.52;;;16.50;;
45848;SDS011;31567;54.600;9.842;2023-03-02T06:36:35;23.77;;;15.73;;
45848;SDS011;31567;54.600;9.842;2023-03-02T06:40:17;21.08;;;15.40;;
45848;SDS011;31567;54.600;9.842;2023-03-02T06:43:56;22.65;;;15.32;;
45848;SDS011;31567;54.600;9.842;2023-03-02T06:47:36;21.67;;;15.60;;
45848;SDS011;31567;54.600;9.842;2023-03-02T06:51:16;28.58;;;18.33;;
45848;SDS011;31567;54.600;9.842;2023-03-02T06:54:56;34.47;;;21.42;;
45848;SDS011;31567;54.600;9.842;2023-03-02T06:58:35;33.10;;;21.65;;
45848;SDS011;31567;54.600;9.842;2023-03-02T07:02:15;40.53;;;24.23;;
45848;SDS011;31567;54.600;9.842;2023-03-02T07:05:55;39.35;;;23.75;;
45848;SDS011;31567;54.600;9.842;2023-03-02T07:09:34;56.55;;;31.27;;
45848;SDS011;31567;54.600;9.842;2023-03-02T07:13:14;89.47;;;43.33;;
45848;SDS011;31567;54.600;9.842;2023-03-02T07:16:53;106.80;;;50.55;;
45848;SDS011;31567;54.600;9.842;2023-03-02T07:20:35;78.57;;;39.72;;
45848;SDS011;31567;54.600;9.842;2023-03-02T07:24:16;73.03;;;36.28;;
45848;SDS011;31567;54.600;9.842;2023-03-02T07:27:55;62.63;;;31.45;;
45848;SDS011;31567;54.600;9.842;2023-03-02T07:31:35;50.88;;;30.65;;
45848;SDS011;31567;54.600;9.842;2023-03-02T07:35:14;48.08;;;26.20;;
45848;SDS011;31567;54.600;9.842;2023-03-02T07:38:55;42.47;;;25.65;;
45848;SDS011;31567;54.600;9.842;2023-03-02T07:42:35;38.67;;;23.45;;
45848;SDS011;31567;54.600;9.842;2023-03-02T07:46:15;32.75;;;21.90;;
45848;SDS011;31567;54.600;9.842;2023-03-02T07:49:55;29.45;;;19.95;;
45848;SDS011;31567;54.600;9.842;2023-03-02T07:53:34;23.63;;;16.85;;
45848;SDS011;31567;54.600;9.842;2023-03-02T07:57:14;28.92;;;18.55;;
45848;SDS011;31567;54.600;9.842;2023-03-02T08:00:56;30.98;;;18.25;;
45848;SDS011;31567;54.600;9.842;2023-03-02T08:04:35;27.10;;;15.50;;
45848;SDS011;31567;54.600;9.842;2023-03-02T08:08:15;26.77;;;15.82;;
45848;SDS011;31567;54.600;9.842;2023-03-02T08:11:54;22.05;;;13.05;;
45848;SDS011;31567;54.600;9.842;2023-03-02T08:15:34;19.98;;;13.73;;
45848;SDS011;31567;54.600;9.842;2023-03-02T08:19:13;21.30;;;14.57;;
45848;SDS011;31567;54.600;9.842;2023-03-02T08:22:53;17.85;;;12.85;;
45848;SDS011;31567;54.600;9.842;2023-03-02T08:26:33;21.20;;;13.48;;
45848;SDS011;31567;54.600;9.842;2023-03-02T08:30:13;18.70;;;12.82;;
45848;SDS011;31567;54.600;9.842;2023-03-02T08:33:53;16.60;;;12.00;;
45848;SDS011;31567;54.600;9.842;2023-03-02T08:37:32;18.02;;;12.27;;
45848;SDS011;31567;54.600;9.842;2023-03-02T08:41:14;17.88;;;11.80;;
45848;SDS011;31567;54.600;9.842;2023-03-02T08:44:55;17.80;;;12.05;;
45848;SDS011;31567;54.600;9.842;2023-03-02T08:48:35;16.77;;;11.85;;
45848;SDS011;31567;54.600;9.842;2023-03-02T08:52:14;17.95;;;12.25;;
45848;SDS011;31567;54.600;9.842;2023-03-02T08:55:54;21.20;;;11.85;;
45848;SDS011;31567;54.600;9.842;2023-03-02T08:59:34;16.73;;;11.85;;
45848;SDS011;31567;54.600;9.842;2023-03-02T09:03:13;19.55;;;12.50;;
45848;SDS011;31567;54.600;9.842;2023-03-02T09:06:53;15.10;;;10.75;;
45848;SDS011;31567;54.600;9.842;2023-03-02T09:10:33;16.33;;;11.25;;
45848;SDS011;31567;54.600;9.842;2023-03-02T09:14:13;17.13;;;10.15;;
45848;SDS011;31567;54.600;9.842;2023-03-02T09:17:52;13.50;;;9.70;;
45848;SDS011;31567;54.600;9.842;2023-03-02T09:21:32;17.20;;;10.40;;
45848;SDS011;31567;54.600;9.842;2023-03-02T09:25:11;13.32;;;9.65;;
45848;SDS011;31567;54.600;9.842;2023-03-02T09:28:51;15.55;;;9.10;;
45848;SDS011;31567;54.600;9.842;2023-03-02T09:32:31;14.45;;;8.90;;
45848;SDS011;31567;54.600;9.842;2023-03-02T09:36:10;13.73;;;8.95;;
45848;SDS011;31567;54.600;9.842;2023-03-02T09:39:56;11.55;;;8.45;;
45848;SDS011;31567;54.600;9.842;2023-03-02T09:59:04;13.40;;;8.50;;
45848;SDS011;31567;54.600;9.842;2023-03-02T10:02:52;9.63;;;8.02;;
45848;SDS011;31567;54.600;9.842;2023-03-02T10:11:13;10.07;;;7.22;;
45848;SDS011;31567;54.600;9.842;2023-03-02T10:15:02;10.93;;;7.95;;
45848;SDS011;31567;54.600;9.842;2023-03-02T10:23:09;11.65;;;8.27;;
45848;SDS011;31567;54.600;9.842;2023-03-02T10:26:59;10.70;;;8.73;;
45848;SDS011;31567;54.600;9.842;2023-03-02T10:30:55;12.00;;;9.27;;
45848;SDS011;31567;54.600;9.842;2023-03-02T10:34:48;11.95;;;8.43;;
45848;SDS011;31567;54.600;9.842;2023-03-02T10:38:30;10.60;;;7.47;;
45848;SDS011;31567;54.600;9.842;2023-03-02T10:42:13;10.57;;;7.18;;
45848;SDS011;31567;54.600;9.842;2023-03-02T10:46:05;9.85;;;7.40;;
45848;SDS011;31567;54.600;9.842;2023-03-02T10:49:48;10.10;;;6.82;;
45848;SDS011;31567;54.600;9.842;2023-03-02T10:53:28;8.40;;;7.30;;
45848;SDS011;31567;54.600;9.842;2023-03-02T11:01:19;12.48;;;7.13;;
45848;SDS011;31567;54.600;9.842;2023-03-02T11:09:03;10.05;;;7.13;;
45848;SDS011;31567;54.600;9.842;2023-03-02T11:12:45;9.40;;;7.40;;
45848;SDS011;31567;54.600;9.842;2023-03-02T11:16:29;9.98;;;8.27;;
45848;SDS011;31567;54.600;9.842;2023-03-02T11:20:21;9.52;;;7.43;;
45848;SDS011;31567;54.600;9.842;2023-03-02T11:24:06;9.50;;;7.20;;
45848;SDS011;31567;54.600;9.842;2023-03-02T11:27:49;8.23;;;6.45;;
45848;SDS011;31567;54.600;9.842;2023-03-02T11:31:51;7.88;;;7.05;;
45848;SDS011;31567;54.600;9.842;2023-03-02T11:35:37;11.15;;;6.72;;
45848;SDS011;31567;54.600;9.842;2023-03-02T11:39:33;8.13;;;6.32;;
45848;SDS011;31567;54.600;9.842;2023-03-02T11:43:33;9.10;;;6.70;;
45848;SDS011;31567;54.600;9.842;2023-03-02T11:47:13;6.25;;;5.35;;
45848;SDS011;31567;54.600;9.842;2023-03-02T11:50:56;6.18;;;5.35;;
45848;SDS011;31567;54.600;9.842;2023-03-02T11:54:39;8.75;;;6.28;;
45848;SDS011;31567;54.600;9.842;2023-03-02T11:58:23;5.35;;;4.70;;
45848;SDS011;31567;54.600;9.842;2023-03-02T12:02:08;6.68;;;5.25;;
45848;SDS011;31567;54.600;9.842;2023-03-02T12:09:35;5.78;;;4.45;;
45848;SDS011;31567;54.600;9.842;2023-03-02T12:13:25;8.13;;;4.05;;
45848;SDS011;31567;54.600;9.842;2023-03-02T12:21:06;5.63;;;4.10;;
45848;SDS011;31567;54.600;9.842;2023-03-02T12:24:57;5.65;;;3.95;;
45848;SDS011;31567;54.600;9.842;2023-03-02T12:28:53;5.60;;;4.50;;
45848;SDS011;31567;54.600;9.842;2023-03-02T12:32:36;4.53;;;3.45;;
45848;SDS011;31567;54.600;9.842;2023-03-02T12:44:13;5.80;;;3.85;;
45848;SDS011;31567;54.600;9.842;2023-03-02T12:48:23;4.95;;;3.90;;
45848;SDS011;31567;54.600;9.842;2023-03-02T12:52:26;6.18;;;4.07;;
45848;SDS011;31567;54.600;9.842;2023-03-02T12:56:08;5.72;;;3.42;;
45848;SDS011;31567;54.600;9.842;2023-03-02T12:59:51;5.90;;;3.70;;
45848;SDS011;31567;54.600;9.842;2023-03-02T13:03:33;5.13;;;3.70;;
45848;SDS011;31567;54.600;9.842;2023-03-02T13:07:13;3.75;;;2.97;;
45848;SDS011;31567;54.600;9.842;2023-03-02T13:10:59;5.07;;;2.72;;
45848;SDS011;31567;54.600;9.842;2023-03-02T13:14:40;3.65;;;3.05;;
45848;SDS011;31567;54.600;9.842;2023-03-02T13:18:27;3.17;;;2.88;;
45848;SDS011;31567;54.600;9.842;2023-03-02T13:25:54;3.78;;;2.88;;
45848;SDS011;31567;54.600;9.842;2023-03-02T13:29:35;3.65;;;2.65;;
45848;SDS011;31567;54.600;9.842;2023-03-02T13:33:17;3.22;;;2.70;;
45848;SDS011;31567;54.600;9.842;2023-03-02T13:37:00;4.30;;;2.65;;
45848;SDS011;31567;54.600;9.842;2023-03-02T13:40:41;2.60;;;2.40;;
45848;SDS011;31567;54.600;9.842;2023-03-02T13:44:27;3.33;;;2.58;;
45848;SDS011;31567;54.600;9.842;2023-03-02T13:48:12;4.78;;;3.03;;
45848;SDS011;31567;54.600;9.842;2023-03-02T13:52:27;3.80;;;2.88;;
45848;SDS011;31567;54.600;9.842;2023-03-02T13:56:05;2.50;;;2.30;;
45848;SDS011;31567;54.600;9.842;2023-03-02T13:59:48;3.08;;;2.88;;
45848;SDS011;31567;54.600;9.842;2023-03-02T14:03:29;3.25;;;2.60;;
45848;SDS011;31567;54.600;9.842;2023-03-02T14:07:09;3.10;;;2.38;;
45848;SDS011;31567;54.600;9.842;2023-03-02T14:10:49;2.47;;;1.90;;
45848;SDS011;31567;54.600;9.842;2023-03-02T14:14:30;2.58;;;2.03;;
45848;SDS011;31567;54.600;9.842;2023-03-02T14:18:28;1.90;;;1.77;;
45848;SDS011;31567;54.600;9.842;2023-03-02T14:22:20;2.47;;;1.88;;
45848;SDS011;31567;54.600;9.842;2023-03-02T14:26:01;2.42;;;2.08;;
45848;SDS011;31567;54.600;9.842;2023-03-02T14:29:44;2.38;;;1.70;;
45848;SDS011;31567;54.600;9.842;2023-03-02T14:33:24;2.90;;;1.80;;
45848;SDS011;31567;54.600;9.842;2023-03-02T14:37:05;3.63;;;1.60;;
45848;SDS011;31567;54.600;9.842;2023-03-02T14:40:52;2.65;;;2.05;;
45848;SDS011;31567;54.600;9.842;2023-03-02T14:44:32;2.67;;;1.65;;
45848;SDS011;31567;54.600;9.842;2023-03-02T14:48:11;1.98;;;1.65;;
45848;SDS011;31567;54.600;9.842;2023-03-02T14:51:56;2.22;;;1.73;;
45848;SDS011;31567;54.600;9.842;2023-03-02T14:55:36;2.20;;;1.95;;
45848;SDS011;31567;54.600;9.842;2023-03-02T14:59:19;1.70;;;1.60;;
45848;SDS011;31567;54.600;9.842;2023-03-02T15:02:59;2.28;;;1.95;;
45848;SDS011;31567;54.600;9.842;2023-03-02T15:06:39;3.30;;;1.63;;
45848;SDS011;31567;54.600;9.842;2023-03-02T15:10:20;1.60;;;1.40;;
45848;SDS011;31567;54.600;9.842;2023-03-02T15:14:00;1.45;;;1.35;;
45848;SDS011;31567;54.600;9.842;2023-03-02T15:17:40;2.03;;;1.60;;
45848;SDS011;31567;54.600;9.842;2023-03-02T15:21:21;1.45;;;1.13;;
45848;SDS011;31567;54.600;9.842;2023-03-02T15:25:02;1.65;;;1.20;;
45848;SDS011;31567;54.600;9.842;2023-03-02T15:28:41;2.55;;;1.40;;
45848;SDS011;31567;54.600;9.842;2023-03-02T15:32:23;2.35;;;1.98;;
45848;SDS011;31567;54.600;9.842;2023-03-02T15:36:03;1.73;;;1.50;;
45848;SDS011;31567;54.600;9.842;2023-03-02T15:39:45;1.20;;;1.10;;
45848;SDS011;31567;54.600;9.842;2023-03-02T15:43:24;1.25;;;1.10;;
45848;SDS011;31567;54.600;9.842;2023-03-02T15:47:04;1.15;;;1.05;;
45848;SDS011;31567;54.600;9.842;2023-03-02T15:50:43;2.42;;;1.02;;
45848;SDS011;31567;54.600;9.842;2023-03-02T15:54:32;1.00;;;0.90;;
45848;SDS011;31567;54.600;9.842;2023-03-02T15:58:12;0.85;;;0.80;;
45848;SDS011;31567;54.600;9.842;2023-03-02T16:01:52;1.13;;;0.80;;
45848;SDS011;31567;54.600;9.842;2023-03-02T16:05:32;2.05;;;1.00;;
45848;SDS011;31567;54.600;9.842;2023-03-02T16:09:12;2.42;;;1.05;;
45848;SDS011;31567;54.600;9.842;2023-03-02T16:12:51;1.00;;;0.80;;
45848;SDS011;31567;54.600;9.842;2023-03-02T16:16:31;1.25;;;1.00;;
45848;SDS011;31567;54.600;9.842;2023-03-02T16:20:11;0.98;;;0.90;;
45848;SDS011;31567;54.600;9.842;2023-03-02T16:23:51;0.85;;;0.85;;
45848;SDS011;31567;54.600;9.842;2023-03-02T16:27:31;1.55;;;0.80;;
45848;SDS011;31567;54.600;9.842;2023-03-02T16:31:12;0.73;;;0.60;;
45848;SDS011;31567;54.600;9.842;2023-03-02T16:34:54;3.28;;;0.93;;
45848;SDS011;31567;54.600;9.842;2023-03-02T16:38:34;1.92;;;1.15;;
45848;SDS011;31567;54.600;9.842;2023-03-02T16:42:14;2.75;;;1.25;;
45848;SDS011;31567;54.600;9.842;2023-03-02T16:45:56;2.60;;;1.60;;
45848;SDS011;31567;54.600;9.842;2023-03-02T16:49:35;2.03;;;1.00;;
45848;SDS011;31567;54.600;9.842;2023-03-02T16:53:15;3.05;;;0.68;;
45848;SDS011;31567;54.600;9.842;2023-03-02T16:56:57;0.70;;;0.65;;
45848;SDS011;31567;54.600;9.842;2023-03-02T17:00:36;4.47;;;0.90;;
45848;SDS011;31567;54.600;9.842;2023-03-02T17:04:16;0.60;;;0.60;;
45848;SDS011;31567;54.600;9.842;2023-03-02T17:07:56;2.15;;;1.10;;
45848;SDS011;31567;54.600;9.842;2023-03-02T17:11:37;6.70;;;2.50;;
45848;SDS011;31567;54.600;9.842;2023-03-02T17:15:17;4.80;;;2.30;;
45848;SDS011;31567;54.600;9.842;2023-03-02T17:18:57;3.08;;;1.85;;
45848;SDS011;31567;54.600;9.842;2023-03-02T17:22:36;3.67;;;2.20;;
45848;SDS011;31567;54.600;9.842;2023-03-02T17:26:16;4.03;;;2.03;;
45848;SDS011;31567;54.600;9.842;2023-03-02T17:29:56;3.22;;;2.60;;
45848;SDS011;31567;54.600;9.842;2023-03-02T17:33:36;2.55;;;1.60;;
45848;SDS011;31567;54.600;9.842;2023-03-02T17:37:16;1.50;;;1.40;;
45848;SDS011;31567;54.600;9.842;2023-03-02T17:40:59;2.35;;;1.60;;
45848;SDS011;31567;54.600;9.842;2023-03-02T17:44:40;2.78;;;1.65;;
45848;SDS011;31567;54.600;9.842;2023-03-02T17:48:19;2.42;;;1.77;;
45848;SDS011;31567;54.600;9.842;2023-03-02T17:51:59;1.63;;;1.50;;
45848;SDS011;31567;54.600;9.842;2023-03-02T17:55:39;3.78;;;2.28;;
45848;SDS011;31567;54.600;9.842;2023-03-02T17:59:18;4.05;;;1.42;;
45848;SDS011;31567;54.600;9.842;2023-03-02T18:02:58;4.28;;;1.95;;
45848;SDS011;31567;54.600;9.842;2023-03-02T18:06:37;5.55;;;2.63;;
45848;SDS011;31567;54.600;9.842;2023-03-02T18:10:17;3.35;;;1.40;;
45848;SDS011;31567;54.600;9.842;2023-03-02T18:13:57;4.50;;;2.40;;
45848;SDS011;31567;54.600;9.842;2023-03-02T18:17:36;6.85;;;2.35;;
45848;SDS011;31567;54.600;9.842;2023-03-02T18:21:16;3.17;;;1.80;;
45848;SDS011;31567;54.600;9.842;2023-03-02T18:24:56;2.25;;;2.05;;
45848;SDS011;31567;54.600;9.842;2023-03-02T18:28:36;5.45;;;2.38;;
45848;SDS011;31567;54.600;9.842;2023-03-02T18:32:16;4.65;;;3.80;;
45848;SDS011;31567;54.600;9.842;2023-03-02T18:35:55;6.65;;;4.60;;
45848;SDS011;31567;54.600;9.842;2023-03-02T18:39:35;3.30;;;3.00;;
45848;SDS011;31567;54.600;9.842;2023-03-02T18:43:18;5.22;;;2.88;;
45848;SDS011;31567;54.600;9.842;2023-03-02T18:46:57;5.47;;;2.22;;
45848;SDS011;31567;54.600;9.842;2023-03-02T18:50:38;5.50;;;2.08;;
45848;SDS011;31567;54.600;9.842;2023-03-02T18:54:18;2.50;;;2.30;;
45848;SDS011;31567;54.600;9.842;2023-03-02T18:57:57;5.55;;;3.83;;
45848;SDS011;31567;54.600;9.842;2023-03-02T19:01:37;7.60;;;5.40;;
45848;SDS011;31567;54.600;9.842;2023-03-02T19:05:17;7.18;;;4.88;;
45848;SDS011;31567;54.600;9.842;2023-03-02T19:08:57;3.78;;;2.30;;
45848;SDS011;31567;54.600;9.842;2023-03-02T19:12:36;6.30;;;2.10;;
45848;SDS011;31567;54.600;9.842;2023-03-02T19:16:16;2.83;;;1.98;;
45848;SDS011;31567;54.600;9.842;2023-03-02T19:19:56;2.28;;;1.75;;
45848;SDS011;31567;54.600;9.842;2023-03-02T19:23:35;3.67;;;2.50;;
45848;SDS011;31567;54.600;9.842;2023-03-02T19:27:16;6.82;;;2.70;;
45848;SDS011;31567;54.600;9.842;2023-03-02T19:30:55;4.40;;;3.85;;
45848;SDS011;31567;54.600;9.842;2023-03-02T19:34:35;6.82;;;4.13;;
45848;SDS011;31567;54.600;9.842;2023-03-02T19:38:15;5.68;;;4.05;;
45848;SDS011;31567;54.600;9.842;2023-03-02T19:41:57;4.03;;;2.60;;
45848;SDS011;31567;54.600;9.842;2023-03-02T19:45:36;3.92;;;3.40;;
45848;SDS011;31567;54.600;9.842;2023-03-02T19:49:16;4.25;;;3.05;;
45848;SDS011;31567;54.600;9.842;2023-03-02T19:52:56;3.78;;;2.17;;
45848;SDS011;31567;54.600;9.842;2023-03-02T19:56:36;2.60;;;2.40;;
45848;SDS011;31567;54.600;9.842;2023-03-02T20:00:18;2.63;;;2.28;;
45848;SDS011;31567;54.600;9.842;2023-03-02T20:03:58;3.35;;;2.50;;
45848;SDS011;31567;54.600;9.842;2023-03-02T20:07:38;5.70;;;3.90;;
45848;SDS011;31567;54.600;9.842;2023-03-02T20:11:18;5.38;;;4.18;;
45848;SDS011;31567;54.600;9.842;2023-03-02T20:14:57;5.22;;;3.90;;
45848;SDS011;31567;54.600;9.842;2023-03-02T20:18:37;4.95;;;4.00;;
45848;SDS011;31567;54.600;9.842;2023-03-02T20:22:17;4.28;;;3.60;;
45848;SDS011;31567;54.600;9.842;2023-03-02T20:25:56;4.82;;;3.63;;
45848;SDS011;31567;54.600;9.842;2023-03-02T20:29:37;3.95;;;3.38;;
45848;SDS011;31567;54.600;9.842;2023-03-02T20:33:21;4.50;;;3.55;;
45848;SDS011;31567;54.600;9.842;2023-03-02T20:37:05;9.05;;;3.50;;
45848;SDS011;31567;54.600;9.842;2023-03-02T20:40:45;4.05;;;2.80;;
45848;SDS011;31567;54.600;9.842;2023-03-02T20:44:25;3.45;;;3.15;;
45848;SDS011;31567;54.600;9.842;2023-03-02T20:48:08;4.60;;;3.08;;
45848;SDS011;31567;54.600;9.842;2023-03-02T20:51:49;6.85;;;4.05;;
45848;SDS011;31567;54.600;9.842;2023-03-02T20:55:32;7.28;;;5.82;;
45848;SDS011;31567;54.600;9.842;2023-03-02T20:59:13;7.53;;;4.43;;
45848;SDS011;31567;54.600;9.842;2023-03-02T21:02:53;7.35;;;4.15;;
45848;SDS011;31567;54.600;9.842;2023-03-02T21:06:35;5.70;;;3.95;;
45848;SDS011;31567;54.600;9.842;2023-03-02T21:10:16;7.15;;;5.70;;
45848;SDS011;31567;54.600;9.842;2023-03-02T21:13:59;7.18;;;5.68;;
45848;SDS011;31567;54.600;9.842;2023-03-02T21:17:39;8.82;;;6.10;;
45848;SDS011;31567;54.600;9.842;2023-03-02T21:21:19;7.35;;;5.75;;
45848;SDS011;31567;54.600;9.842;2023-03-02T21:24:59;5.97;;;4.93;;
45848;SDS011;31567;54.600;9.842;2023-03-02T21:28:39;6.22;;;5.63;;
45848;SDS011;31567;54.600;9.842;2023-03-02T21:32:22;6.35;;;5.00;;
45848;SDS011;31567;54.600;9.842;2023-03-02T21:36:01;8.88;;;5.38;;
45848;SDS011;31567;54.600;9.842;2023-03-02T21:39:41;9.50;;;6.72;;
45848;SDS011;31567;54.600;9.842;2023-03-02T21:43:20;8.55;;;6.13;;
45848;SDS011;31567;54.600;9.842;2023-03-02T21:47:00;7.90;;;5.32;;
45848;SDS011;31567;54.600;9.842;2023-03-02T21:50:40;6.30;;;5.10;;
45848;SDS011;31567;54.600;9.842;2023-03-02T21:54:20;5.30;;;4.80;;
45848;SDS011;31567;54.600;9.842;2023-03-02T21:57:59;7.38;;;4.88;;
45848;SDS011;31567;54.600;9.842;2023-03-02T22:01:39;4.50;;;4.10;;
45848;SDS011;31567;54.600;9.842;2023-03-02T22:05:19;6.32;;;4.80;;
45848;SDS011;31567;54.600;9.842;2023-03-02T22:08:59;6.35;;;5.00;;
45848;SDS011;31567;54.600;9.842;2023-03-02T22:12:39;6.72;;;4.93;;
45848;SDS011;31567;54.600;9.842;2023-03-02T22:16:21;6.43;;;5.10;;
45848;SDS011;31567;54.600;9.842;2023-03-02T22:20:10;6.03;;;4.85;;
45848;SDS011;31567;54.600;9.842;2023-03-02T22:24:36;9.18;;;5.32;;
45848;SDS011;31567;54.600;9.842;2023-03-02T22:27:58;6.50;;;4.38;;
45848;SDS011;31567;54.600;9.842;2023-03-02T22:31:39;5.65;;;4.78;;
45848;SDS011;31567;54.600;9.842;2023-03-02T22:35:25;6.75;;;4.63;;
45848;SDS011;31567;54.600;9.842;2023-03-02T22:39:05;5.18;;;4.00;;
45848;SDS011;31567;54.600;9.842;2023-03-02T22:43:01;5.32;;;4.57;;
45848;SDS011;31567;54.600;9.842;2023-03-02T22:46:49;6.97;;;4.90;;
45848;SDS011;31567;54.600;9.842;2023-03-02T22:50:31;5.88;;;4.90;;